Time;durP1;ratioP1;P1;durP2;ratioP2;P2;SDS_P1;SDS_P2;PMS_P1;PMS_P2;Temp;Humidity;BMP_temperature;BMP_pressure;BME280_temperature;BME280_humidity;BME280_pressure;Samples;Min_cycle;Max_cycle;Signal;HPM_P1;HPM_P2
2022/06/25 00:01:08;;;;;;;40.45;5.30;;;42.20;31.60;;;;;;4972762;28;20037;-66
2022/06/25 00:03:34;;;;;;;28.80;4.00;;;42.20;31.60;;;;;;4972642;28;20062;-66
2022/06/25 00:06:01;;;;;;;30.05;3.63;;;42.10;31.90;;;;;;4971243;28;20497;-66
2022/06/25 00:08:27;;;;;;;26.88;3.83;;;42.00;32.40;;;;;;4986143;28;20027;-64
2022/06/25 00:10:54;;;;;;;26.27;4.07;;;42.10;32.90;;;;;;4970762;28;20050;-66
2022/06/25 00:13:21;;;;;;;34.53;3.97;;;41.90;32.00;;;;;;4967099;28;20500;-65
2022/06/25 00:15:48;;;;;;;25.75;3.92;;;41.80;32.30;;;;;;4966664;28;20142;-66
2022/06/25 00:18:15;;;;;;;21.95;4.03;;;41.80;32.40;;;;;;4967867;28;20115;-64
2022/06/25 00:20:44;;;;;;;26.10;3.55;;;41.60;32.50;;;;;;4968772;28;20548;-64
2022/06/25 00:23:11;;;;;;;28.92;4.00;;;41.70;32.00;;;;;;4966111;28;20061;-64
2022/06/25 00:25:37;;;;;;;27.85;4.78;;;41.60;32.20;;;;;;4969196;28;20277;-65
2022/06/25 00:28:04;;;;;;;26.23;4.47;;;41.50;32.80;;;;;;4954684;28;20402;-64
2022/06/25 00:30:31;;;;;;;26.33;3.65;;;41.30;33.70;;;;;;4971952;28;20031;-66
2022/06/25 00:32:58;;;;;;;25.30;3.75;;;41.30;34.10;;;;;;4972879;28;20027;-68
2022/06/25 00:35:25;;;;;;;33.30;4.40;;;41.40;34.20;;;;;;4985153;28;20026;-65
2022/06/25 00:37:51;;;;;;;29.15;3.30;;;41.30;35.50;;;;;;4971730;28;20112;-64
2022/06/25 00:40:18;;;;;;;22.95;3.17;;;41.10;35.70;;;;;;4956226;28;20026;-65
2022/06/25 00:42:46;;;;;;;31.92;3.78;;;40.90;35.60;;;;;;4970401;28;20460;-62
2022/06/25 00:45:12;;;;;;;19.70;3.13;;;40.80;35.60;;;;;;4969159;28;20034;-65
2022/06/25 00:47:39;;;;;;;36.03;3.83;;;40.70;35.90;;;;;;4971332;28;20130;-64
2022/06/25 00:50:08;;;;;;;22.73;3.03;;;40.80;35.90;;;;;;4955024;28;20035;-63
2022/06/25 00:52:39;;;;;;;24.23;3.35;;;40.70;36.40;;;;;;4970575;28;20113;-62
2022/06/25 00:55:11;;;;;;;15.93;3.33;;;40.60;36.70;;;;;;4984715;28;20582;-63
2022/06/25 00:57:43;;;;;;;24.70;3.00;;;40.50;36.90;;;;;;4970963;28;20037;-65
2022/06/25 01:00:14;;;;;;;21.25;2.95;;;40.50;36.40;;;;;;4954291;28;20050;-66
2022/06/25 01:02:42;;;;;;;15.88;2.60;;;40.40;36.20;;;;;;4970509;28;20050;-65
2022/06/25 01:05:10;;;;;;;16.35;2.88;;;40.30;36.10;;;;;;4938300;28;20069;-64
2022/06/25 01:07:38;;;;;;;15.65;3.22;;;40.10;36.00;;;;;;4969978;28;20158;-64
2022/06/25 01:10:06;;;;;;;19.45;3.65;;;40.10;36.10;;;;;;4954803;28;20023;-65
2022/06/25 01:12:34;;;;;;;16.42;2.78;;;40.10;36.40;;;;;;4973855;28;20046;-64
2022/06/25 01:15:20;;;;;;;20.83;2.97;;;40.00;36.00;;;;;;4970341;28;20504;-65
2022/06/25 01:17:53;;;;;;;11.00;2.75;;;39.90;36.00;;;;;;4969779;28;20027;-63
2022/06/25 01:20:25;;;;;;;12.55;2.80;;;39.90;35.80;;;;;;4970870;28;20023;-65
2022/06/25 01:22:52;;;;;;;17.27;2.50;;;39.70;36.00;;;;;;4967752;28;20038;-66
2022/06/25 01:25:18;;;;;;;15.45;2.50;;;39.80;35.10;;;;;;4985118;28;20493;-68
2022/06/25 01:27:46;;;;;;;18.05;2.60;;;39.70;34.90;;;;;;4969126;28;20026;-62
2022/06/25 01:30:13;;;;;;;18.75;2.65;;;39.60;33.80;;;;;;4971423;28;20109;-64
2022/06/25 01:32:40;;;;;;;12.07;2.00;;;39.60;34.30;;;;;;4937670;28;20026;-63
2022/06/25 01:35:08;;;;;;;13.65;2.38;;;39.50;34.40;;;;;;4970257;28;20089;-64
2022/06/25 01:37:36;;;;;;;12.27;2.67;;;39.50;34.40;;;;;;4969708;28;20477;-64
2022/06/25 01:40:03;;;;;;;21.02;2.70;;;39.50;35.60;;;;;;4985807;28;20041;-63
2022/06/25 01:45:15;;;;;;;25.52;3.10;;;39.30;36.40;;;;;;4970385;28;20501;-64
2022/06/25 01:47:41;;;;;;;18.15;3.05;;;39.30;35.90;;;;;;4969588;28;20073;-63
2022/06/25 01:50:08;;;;;;;18.67;2.65;;;39.20;36.20;;;;;;4969325;28;20018;-67
2022/06/25 01:52:35;;;;;;;21.92;3.55;;;39.10;35.20;;;;;;4969547;28;20048;-64
2022/06/25 01:55:01;;;;;;;15.77;2.45;;;39.10;35.40;;;;;;4972609;28;20031;-66
2022/06/25 01:57:28;;;;;;;23.10;2.65;;;39.00;34.80;;;;;;4969344;28;20151;-66
2022/06/25 01:59:54;;;;;;;16.73;2.63;;;38.90;35.30;;;;;;4970208;28;20117;-64
2022/06/25 02:02:21;;;;;;;21.52;5.18;;;38.80;35.20;;;;;;4986983;28;20035;-66
2022/06/25 02:04:47;;;;;;;10.07;2.35;;;38.70;35.70;;;;;;4969378;28;20140;-64
2022/06/25 02:07:13;;;;;;;23.90;2.72;;;38.70;35.40;;;;;;4972609;28;20023;-67
2022/06/25 02:09:40;;;;;;;14.73;2.75;;;38.60;35.30;;;;;;4969055;28;20030;-64
2022/06/25 02:12:07;;;;;;;20.48;3.05;;;38.50;35.40;;;;;;4969759;28;20027;-63
2022/06/25 02:14:34;;;;;;;19.98;3.20;;;38.50;34.80;;;;;;4969710;28;20037;-64
2022/06/25 02:17:00;;;;;;;13.23;2.45;;;38.40;34.40;;;;;;4969171;28;20530;-64
2022/06/25 02:19:28;;;;;;;19.17;2.50;;;38.40;35.00;;;;;;4970432;28;20516;-62
2022/06/25 02:21:55;;;;;;;17.58;2.92;;;38.30;35.30;;;;;;4968363;28;20509;-63
2022/06/25 02:24:22;;;;;;;17.52;2.78;;;38.30;35.50;;;;;;4980964;28;20160;-65
2022/06/25 02:26:48;;;;;;;17.45;2.55;;;38.20;35.40;;;;;;4968455;28;20048;-63
2022/06/25 02:29:14;;;;;;;13.70;3.00;;;38.20;35.50;;;;;;4971558;28;20063;-64
2022/06/25 02:31:41;;;;;;;16.20;2.45;;;38.10;36.10;;;;;;4968089;28;20129;-64
2022/06/25 02:34:07;;;;;;;17.90;2.78;;;38.00;36.50;;;;;;4967873;28;20062;-64
2022/06/25 02:36:33;;;;;;;13.27;2.40;;;38.00;37.20;;;;;;4969611;28;20582;-62
2022/06/25 02:39:00;;;;;;;19.85;2.55;;;37.90;37.40;;;;;;4968748;28;20073;-64
2022/06/25 02:41:26;;;;;;;20.05;3.22;;;37.90;37.50;;;;;;4970576;28;20053;-64
2022/06/25 02:43:53;;;;;;;24.02;4.00;;;37.80;37.80;;;;;;4968754;28;20037;-66
2022/06/25 02:46:19;;;;;;;20.88;2.92;;;37.80;37.90;;;;;;4968353;28;20059;-64
2022/06/25 02:48:46;;;;;;;24.73;4.05;;;37.70;37.90;;;;;;4968580;28;20876;-63
2022/06/25 02:51:12;;;;;;;31.63;3.38;;;37.70;38.10;;;;;;4952858;28;20496;-63
2022/06/25 02:53:39;;;;;;;26.80;4.88;;;37.60;38.20;;;;;;4969262;28;20046;-64
2022/06/25 02:58:56;;;;;;;16.52;3.25;;;37.40;40.20;;;;;;4969683;28;20413;-63
2022/06/25 03:01:24;;;;;;;15.90;2.90;;;37.40;41.00;;;;;;4972578;28;20087;-64
2022/06/25 03:03:52;;;;;;;26.23;3.47;;;37.30;41.00;;;;;;4973064;28;20048;-64
2022/06/25 03:06:18;;;;;;;19.08;3.47;;;37.30;41.40;;;;;;4971869;28;20108;-54
2022/06/25 03:08:46;;;;;;;23.55;3.75;;;37.10;41.60;;;;;;4986154;28;20065;-62
2022/06/25 03:11:13;;;;;;;14.68;2.70;;;37.10;41.40;;;;;;4973500;28;20494;-65
2022/06/25 03:13:39;;;;;;;20.27;2.78;;;37.00;41.20;;;;;;4972258;28;20194;-61
2022/06/25 03:16:07;;;;;;;15.90;2.70;;;37.00;41.40;;;;;;4956134;28;20618;-62
2022/06/25 03:18:35;;;;;;;15.35;2.90;;;36.90;41.30;;;;;;4971846;28;20054;-62
2022/06/25 03:21:02;;;;;;;18.70;3.45;;;36.80;41.60;;;;;;4972364;28;20058;-62
2022/06/25 03:23:29;;;;;;;20.40;3.00;;;36.70;41.60;;;;;;4971903;28;20096;-64
2022/06/25 03:25:55;;;;;;;16.65;2.55;;;36.70;41.70;;;;;;4952172;28;20066;-62
2022/06/25 03:28:22;;;;;;;12.20;2.90;;;36.70;41.60;;;;;;4971460;28;20048;-63
2022/06/25 03:30:48;;;;;;;16.20;2.63;;;36.60;41.70;;;;;;4971223;28;20046;-64
2022/06/25 03:33:15;;;;;;;32.20;3.38;;;36.60;41.40;;;;;;4971386;28;20147;-65
2022/06/25 03:35:41;;;;;;;16.58;3.13;;;36.60;41.60;;;;;;4971129;28;20057;-62
2022/06/25 03:38:08;;;;;;;14.10;2.95;;;36.50;41.60;;;;;;4972837;28;20058;-65
2022/06/25 03:40:34;;;;;;;25.25;3.67;;;36.50;41.50;;;;;;4956249;28;20055;-65
2022/06/25 03:43:01;;;;;;;19.65;3.67;;;36.40;41.50;;;;;;4971834;28;20141;-63
2022/06/25 03:45:27;;;;;;;18.25;3.17;;;36.40;41.30;;;;;;4969833;28;20150;-63
2022/06/25 03:47:54;;;;;;;27.45;3.42;;;36.40;41.30;;;;;;4938412;28;20045;-66
2022/06/25 03:50:21;;;;;;;34.60;3.90;;;36.40;41.40;;;;;;4972460;28;20057;-65
2022/06/25 03:52:49;;;;;;;19.65;2.67;;;36.30;41.20;;;;;;4971226;28;20045;-67
2022/06/25 03:55:17;;;;;;;27.95;3.47;;;36.30;41.00;;;;;;4954748;28;20056;-63
2022/06/25 03:57:43;;;;;;;24.40;3.22;;;36.20;40.80;;;;;;4971880;28;20135;-63
2022/06/25 04:00:10;;;;;;;14.93;2.85;;;36.10;41.20;;;;;;4971753;28;20044;-63
2022/06/25 04:02:37;;;;;;;18.20;3.70;;;36.10;41.40;;;;;;4955457;28;20408;-63
2022/06/25 04:05:04;;;;;;;19.98;5.03;;;36.10;41.50;;;;;;4976177;28;20062;-64
2022/06/25 04:07:30;;;;;;;22.55;4.80;;;36.10;41.80;;;;;;4971043;28;20262;-64
2022/06/25 04:09:57;;;;;;;26.50;3.85;;;36.10;42.10;;;;;;4971076;28;20045;-66
2022/06/25 04:12:23;;;;;;;21.02;3.42;;;36.00;42.20;;;;;;4974660;28;20094;-63
2022/06/25 04:14:49;;;;;;;26.67;4.43;;;35.90;42.10;;;;;;4971768;28;20646;-63
2022/06/25 04:17:16;;;;;;;26.58;4.15;;;35.90;42.30;;;;;;4987868;28;20147;-65
2022/06/25 04:19:42;;;;;;;30.23;4.45;;;35.80;42.40;;;;;;4971985;28;20902;-66
2022/06/25 04:22:12;;;;;;;33.35;4.43;;;35.70;42.40;;;;;;4989437;28;20111;-67
2022/06/25 04:24:40;;;;;;;36.13;3.95;;;35.70;42.70;;;;;;4970797;28;20170;-67
2022/06/25 04:27:07;;;;;;;34.70;4.22;;;35.70;43.30;;;;;;4969139;28;20052;-67
2022/06/25 04:29:33;;;;;;;19.85;3.25;;;35.70;43.20;;;;;;4970151;28;20053;-67
2022/06/25 04:32:00;;;;;;;24.65;3.45;;;35.60;43.60;;;;;;4971475;28;20480;-66
2022/06/25 04:34:26;;;;;;;23.73;3.45;;;35.60;43.20;;;;;;4969924;28;20075;-66
2022/06/25 04:36:53;;;;;;;28.02;3.33;;;35.50;43.50;;;;;;4970136;28;20053;-65
2022/06/25 04:39:20;;;;;;;25.80;3.50;;;35.50;43.80;;;;;;4970359;28;20063;-64
2022/06/25 04:41:46;;;;;;;78.15;5.90;;;35.40;43.90;;;;;;4971633;28;20412;-66
2022/06/25 04:44:15;;;;;;;29.70;3.78;;;35.30;44.10;;;;;;4972287;28;20097;-69
2022/06/25 04:46:42;;;;;;;34.45;4.80;;;35.30;44.20;;;;;;4970403;28;20840;-66
2022/06/25 04:49:09;;;;;;;36.33;4.97;;;35.30;44.30;;;;;;4983032;28;20103;-68
2022/06/25 04:51:35;;;;;;;32.33;4.80;;;35.30;44.10;;;;;;4954826;28;20523;-67
2022/06/25 04:54:03;;;;;;;34.15;4.25;;;35.20;44.70;;;;;;4969668;28;20562;-69
2022/06/25 04:56:31;;;;;;;28.90;4.57;;;35.20;44.90;;;;;;4969599;28;20417;-66
2022/06/25 04:58:58;;;;;;;30.90;3.28;;;35.10;44.30;;;;;;4970527;28;20048;-69
2022/06/25 05:01:24;;;;;;;37.10;4.65;;;35.10;44.10;;;;;;4969699;28;20521;-68
2022/06/25 05:03:51;;;;;;;32.13;3.88;;;35.10;44.70;;;;;;4969905;28;20061;-67
2022/06/25 05:06:17;;;;;;;26.13;3.78;;;35.00;44.50;;;;;;4969232;28;20464;-67
2022/06/25 05:08:44;;;;;;;32.28;4.22;;;35.00;44.90;;;;;;4974420;28;20063;-68
2022/06/25 05:11:10;;;;;;;29.95;3.60;;;35.00;44.60;;;;;;4969640;28;20055;-67
2022/06/25 05:13:37;;;;;;;34.55;4.00;;;35.00;44.70;;;;;;4970043;28;20063;-66
2022/06/25 05:16:03;;;;;;;28.13;4.25;;;34.90;44.90;;;;;;4973207;28;20114;-67
2022/06/25 05:18:30;;;;;;;36.58;3.88;;;34.90;45.40;;;;;;4968947;28;20053;-66
2022/06/25 05:20:57;;;;;;;19.23;4.03;;;34.90;45.20;;;;;;4970064;28;20044;-67
2022/06/25 05:23:23;;;;;;;51.97;4.03;;;34.70;45.20;;;;;;4969325;28;20092;-66
2022/06/25 05:25:50;;;;;;;31.13;4.28;;;34.70;44.50;;;;;;4972067;28;20442;-66
2022/06/25 05:28:17;;;;;;;21.95;3.60;;;34.70;37.90;;;;;;4967050;28;20059;-67
2022/06/25 05:30:43;;;;;;;16.85;3.83;;;34.90;29.20;;;;;;4969717;28;20091;-69
2022/06/25 05:33:10;;;;;;;16.67;3.40;;;35.00;28.30;;;;;;4953493;28;20086;-67
2022/06/25 05:35:36;;;;;;;16.65;3.17;;;35.10;27.20;;;;;;4968267;28;20118;-69
2022/06/25 05:38:03;;;;;;;16.38;2.90;;;35.20;26.80;;;;;;4968171;28;20058;-69
2022/06/25 05:40:29;;;;;;;9.55;2.88;;;35.20;26.20;;;;;;4980747;28;20108;-69
2022/06/25 05:42:55;;;;;;;11.90;2.58;;;35.20;25.90;;;;;;4985133;28;20440;-69
2022/06/25 05:45:22;;;;;;;11.55;3.38;;;35.20;25.60;;;;;;4970058;28;20071;-69
2022/06/25 05:47:48;;;;;;;13.75;3.28;;;35.20;24.80;;;;;;4968820;28;20863;-71
2022/06/25 05:50:15;;;;;;;7.55;2.60;;;35.30;24.30;;;;;;4968242;28;20082;-67
2022/06/25 05:52:41;;;;;;;12.32;2.10;;;35.30;24.10;;;;;;4969132;28;20060;-68
2022/06/25 05:55:08;;;;;;;10.18;2.05;;;35.30;23.60;;;;;;4969377;28;20052;-68
2022/06/25 05:57:35;;;;;;;11.05;2.08;;;35.30;23.90;;;;;;4970271;28;20497;-69
2022/06/25 06:00:03;;;;;;;13.77;2.47;;;35.40;23.80;;;;;;4952900;28;20056;-70
2022/06/25 06:02:30;;;;;;;6.47;2.03;;;35.30;23.70;;;;;;4953144;28;20053;-70
2022/06/25 06:04:56;;;;;;;8.73;2.38;;;35.30;23.60;;;;;;4969938;28;20062;-69
2022/06/25 06:07:23;;;;;;;9.77;2.33;;;35.30;23.10;;;;;;4968435;28;20424;-70
2022/06/25 06:09:49;;;;;;;9.20;2.13;;;35.30;23.40;;;;;;4957378;28;20152;-69
2022/06/25 06:12:15;;;;;;;8.45;1.98;;;35.20;23.30;;;;;;4967693;28;20077;-71
2022/06/25 06:14:42;;;;;;;13.52;2.72;;;35.20;23.20;;;;;;4991306;28;20145;-67
2022/06/25 06:17:09;;;;;;;11.82;2.63;;;35.20;23.60;;;;;;4969088;28;20055;-68
2022/06/25 06:19:35;;;;;;;7.85;1.90;;;35.20;23.20;;;;;;4969119;28;20047;-69
2022/06/25 06:22:02;;;;;;;24.42;2.40;;;35.10;23.40;;;;;;4984071;28;20521;-69
2022/06/25 06:24:28;;;;;;;6.85;2.08;;;35.10;24.20;;;;;;4968553;28;20146;-68
2022/06/25 06:26:55;;;;;;;12.55;2.00;;;35.00;23.80;;;;;;4968402;28;20050;-70
2022/06/25 06:29:21;;;;;;;15.23;2.40;;;34.90;23.50;;;;;;4967061;28;20062;-71
2022/06/25 06:31:47;;;;;;;8.45;2.38;;;34.90;24.20;;;;;;4968769;28;20044;-65
2022/06/25 06:34:14;;;;;;;9.98;2.05;;;34.80;24.00;;;;;;4967946;28;20532;-70
2022/06/25 06:36:41;;;;;;;6.93;2.10;;;34.80;24.10;;;;;;4968105;28;20081;-69
2022/06/25 06:39:07;;;;;;;8.32;2.00;;;34.70;24.00;;;;;;4988103;28;20505;-69
2022/06/25 06:41:34;;;;;;;6.20;1.67;;;34.60;23.90;;;;;;4957889;28;20088;-68
2022/06/25 06:44:00;;;;;;;11.35;1.90;;;34.60;23.90;;;;;;4984276;28;20069;-68
2022/06/25 06:46:26;;;;;;;8.52;1.63;;;34.60;23.30;;;;;;4983673;28;20411;-68
2022/06/25 06:48:53;;;;;;;5.47;1.83;;;34.60;23.30;;;;;;4969277;28;20073;-68
2022/06/25 06:51:19;;;;;;;8.55;1.75;;;34.60;23.40;;;;;;4970148;28;20058;-69
2022/06/25 06:53:46;;;;;;;7.18;2.03;;;34.60;23.40;;;;;;4969415;28;20527;-67
2022/06/25 06:56:12;;;;;;;10.48;2.63;;;34.60;23.40;;;;;;4969784;28;20542;-68
2022/06/25 06:58:38;;;;;;;7.45;1.90;;;34.60;23.00;;;;;;4971496;28;20140;-70
2022/06/25 07:01:05;;;;;;;7.50;2.47;;;34.60;23.50;;;;;;4970779;28;20060;-71
2022/06/25 07:03:31;;;;;;;9.15;2.50;;;34.50;22.90;;;;;;4968554;28;20097;-67
2022/06/25 07:05:58;;;;;;;12.05;3.13;;;34.50;23.20;;;;;;4984515;28;20073;-68
2022/06/25 07:08:24;;;;;;;9.50;2.80;;;34.40;23.50;;;;;;4968873;28;20090;-68
2022/06/25 07:10:51;;;;;;;9.75;2.47;;;34.40;23.40;;;;;;4969472;28;20576;-70
2022/06/25 07:13:17;;;;;;;8.25;2.65;;;34.40;23.20;;;;;;4984666;28;20065;-68
2022/06/25 07:15:44;;;;;;;8.32;1.98;;;34.40;23.80;;;;;;4970654;28;20133;-69
2022/06/25 07:18:10;;;;;;;16.40;3.30;;;34.30;23.30;;;;;;4969127;28;20056;-69
2022/06/25 07:20:36;;;;;;;13.07;2.85;;;34.30;23.80;;;;;;4969542;28;20509;-69
2022/06/25 07:23:03;;;;;;;6.95;2.20;;;34.30;23.50;;;;;;4984371;28;20095;-68
2022/06/25 07:25:29;;;;;;;7.15;2.42;;;34.30;23.40;;;;;;4935846;28;20112;-72
2022/06/25 07:27:56;;;;;;;7.70;2.00;;;34.30;23.60;;;;;;4969103;28;20538;-69
2022/06/25 07:30:24;;;;;;;3.90;1.60;;;34.30;23.10;;;;;;4965134;28;20067;-69
2022/06/25 07:32:50;;;;;;;9.95;1.75;;;34.30;23.30;;;;;;4968492;28;20122;-69
2022/06/25 07:35:16;;;;;;;7.85;1.60;;;34.20;23.20;;;;;;4968203;28;20080;-69
2022/06/25 07:37:43;;;;;;;6.53;1.42;;;34.20;23.90;;;;;;4983483;28;20063;-69
2022/06/25 07:40:10;;;;;;;4.93;1.35;;;34.20;23.70;;;;;;4968283;28;20062;-69
2022/06/25 07:42:36;;;;;;;7.88;1.80;;;34.10;23.40;;;;;;4969517;28;20057;-71
2022/06/25 07:45:03;;;;;;;10.00;1.50;;;34.10;23.30;;;;;;4984579;28;20103;-70
2022/06/25 07:47:37;;;;;;;5.07;1.33;;;34.10;23.80;;;;;;4955279;28;20919;-70
2022/06/25 07:52:51;;;;;;;19.70;2.65;;;33.90;24.20;;;;;;4971893;28;20064;-72
2022/06/25 07:55:17;;;;;;;12.90;1.85;;;33.90;24.20;;;;;;4970821;28;20062;-72
2022/06/25 07:57:44;;;;;;;8.32;1.92;;;33.80;24.70;;;;;;4975554;28;20064;-70
2022/06/25 08:00:11;;;;;;;8.50;1.90;;;33.80;25.00;;;;;;4971773;28;20060;-72
2022/06/25 08:02:38;;;;;;;14.55;4.10;;;33.70;27.60;;;;;;4987180;28;21078;-71
2022/06/25 08:05:04;;;;;;;23.20;4.20;;;33.60;32.20;;;;;;4971051;28;20084;-70
2022/06/25 08:07:31;;;;;;;23.27;4.85;;;33.50;36.30;;;;;;4971465;28;20070;-71
2022/06/25 08:09:58;;;;;;;26.05;5.38;;;33.40;37.00;;;;;;5000526;23;20585;-69
2022/06/25 08:12:24;;;;;;;21.60;4.57;;;33.30;36.40;;;;;;4975438;28;20070;-68
2022/06/25 08:14:51;;;;;;;16.52;4.45;;;33.20;36.90;;;;;;4974744;28;20067;-69
2022/06/25 08:17:17;;;;;;;28.88;4.97;;;33.10;37.00;;;;;;4987371;28;20181;-69
2022/06/25 08:19:43;;;;;;;17.77;4.32;;;33.10;37.90;;;;;;4972696;28;20067;-70
2022/06/25 08:22:10;;;;;;;29.00;5.03;;;33.00;37.90;;;;;;4971067;28;20058;-70
2022/06/25 08:24:37;;;;;;;22.73;5.78;;;32.90;37.90;;;;;;4970329;28;20103;-72
2022/06/25 08:27:03;;;;;;;22.48;4.72;;;32.90;37.60;;;;;;4970561;28;20151;-69
2022/06/25 08:29:30;;;;;;;18.90;4.22;;;32.80;41.00;;;;;;4954783;28;20131;-68
2022/06/25 08:31:56;;;;;;;24.90;4.95;;;32.70;43.60;;;;;;4968324;28;20061;-66
2022/06/25 08:34:22;;;;;;;18.15;4.20;;;32.60;43.90;;;;;;4980412;28;20222;-70
2022/06/25 08:36:49;;;;;;;20.52;4.70;;;32.50;44.30;;;;;;4951700;28;20085;-70
2022/06/25 08:39:15;;;;;;;23.25;5.55;;;32.40;45.30;;;;;;4952576;28;20069;-68
2022/06/25 08:41:42;;;;;;;14.70;4.22;;;32.30;47.10;;;;;;4952563;28;20098;-68
2022/06/25 08:44:09;;;;;;;18.30;5.38;;;32.30;48.30;;;;;;4952089;28;20065;-64
2022/06/25 08:46:36;;;;;;;21.33;6.30;;;32.20;48.60;;;;;;4954007;28;20080;-65
2022/06/25 08:49:04;;;;;;;21.92;5.72;;;32.20;50.00;;;;;;4952205;28;20093;-64
2022/06/25 08:51:32;;;;;;;24.77;4.95;;;32.10;50.20;;;;;;4951652;28;20106;-65
2022/06/25 08:54:01;;;;;;;28.15;5.68;;;32.10;51.20;;;;;;4951402;28;20058;-65
2022/06/25 08:56:28;;;;;;;24.63;6.07;;;31.90;51.30;;;;;;4955274;28;20086;-67
2022/06/25 08:58:56;;;;;;;28.73;5.88;;;32.00;51.40;;;;;;4952274;28;20074;-64
2022/06/25 09:01:22;;;;;;;28.90;5.53;;;31.80;52.20;;;;;;4950357;28;20076;-65
2022/06/25 09:03:49;;;;;;;28.98;5.47;;;31.70;53.20;;;;;;4950827;28;20161;-65
2022/06/25 09:06:18;;;;;;;28.70;5.53;;;31.70;54.30;;;;;;4953139;28;20094;-66
2022/06/25 09:09:04;;;;;;;21.95;5.50;;;31.60;54.50;;;;;;4967154;28;20238;-71
2022/06/25 09:11:31;;;;;;;23.27;5.43;;;31.60;54.30;;;;;;4953259;28;20078;-70
2022/06/25 09:14:25;;;;;;;22.63;4.82;;;31.50;55.50;;;;;;4948658;28;20629;-71
2022/06/25 09:17:01;;;;;;;24.17;4.88;;;31.50;55.70;;;;;;4963767;28;20081;-71
2022/06/25 09:19:37;;;;;;;18.30;4.95;;;31.40;55.90;;;;;;4951800;28;20089;-70
2022/06/25 09:22:05;;;;;;;20.63;4.97;;;31.30;56.40;;;;;;4951392;28;20071;-68
2022/06/25 09:24:42;;;;;;;20.58;5.05;;;31.30;56.80;;;;;;4952350;28;20554;-70
2022/06/25 09:27:08;;;;;;;18.80;4.90;;;31.10;57.40;;;;;;4951340;28;20130;-68
2022/06/25 09:29:40;;;;;;;16.27;4.82;;;31.20;57.50;;;;;;4950517;28;20077;-70
2022/06/25 09:32:07;;;;;;;21.17;4.90;;;31.10;57.70;;;;;;4948789;28;20535;-69
2022/06/25 09:34:34;;;;;;;18.70;5.15;;;31.00;58.10;;;;;;4953573;28;20119;-69
2022/06/25 09:37:27;;;;;;;20.88;4.68;;;31.10;58.40;;;;;;4949846;28;20079;-70
2022/06/25 09:39:55;;;;;;;17.45;4.90;;;31.10;58.90;;;;;;4951070;28;20106;-72
2022/06/25 09:42:28;;;;;;;26.02;5.05;;;31.00;59.50;;;;;;4956944;28;20433;-69
2022/06/25 09:45:05;;;;;;;10.95;4.47;;;31.00;59.60;;;;;;4949718;28;20088;-68
2022/06/25 09:47:36;;;;;;;16.40;4.78;;;30.90;59.90;;;;;;4950762;28;20162;-68
2022/06/25 09:50:08;;;;;;;19.42;5.10;;;30.90;60.70;;;;;;4950699;28;20080;-70
2022/06/25 09:52:36;;;;;;;17.58;4.75;;;30.90;60.70;;;;;;4949881;28;20119;-69
2022/06/25 09:55:04;;;;;;;20.20;5.30;;;30.90;60.50;;;;;;4951752;28;20079;-70
2022/06/25 09:57:32;;;;;;;20.35;5.55;;;30.90;61.40;;;;;;4949856;28;20077;-68
2022/06/25 10:00:00;;;;;;;13.00;4.90;;;30.90;61.50;;;;;;4950292;28;20603;-69
2022/06/25 10:02:28;;;;;;;23.58;5.10;;;30.90;61.10;;;;;;4949449;28;20090;-72
2022/06/25 10:04:59;;;;;;;18.13;5.38;;;30.80;61.80;;;;;;4950418;28;20555;-70
2022/06/25 10:07:59;;;;;;;24.60;5.15;;;30.80;61.80;;;;;;4952390;28;20073;-69
2022/06/25 10:10:23;;;;;;;20.15;5.00;;;30.70;61.80;;;;;;4950364;28;20186;-70
2022/06/25 10:12:51;;;;;;;14.45;4.82;;;30.80;62.30;;;;;;4950671;28;20140;-69
2022/06/25 10:15:23;;;;;;;20.98;6.25;;;30.60;63.20;;;;;;4949710;28;20094;-69
2022/06/25 10:17:54;;;;;;;25.67;5.80;;;30.60;64.40;;;;;;4949753;28;20118;-69
2022/06/25 10:20:21;;;;;;;25.05;5.78;;;30.60;63.60;;;;;;4951487;28;20074;-70
2022/06/25 10:22:50;;;;;;;22.60;5.78;;;30.50;63.70;;;;;;4950376;28;20092;-69
2022/06/25 10:25:22;;;;;;;23.70;5.78;;;30.50;63.90;;;;;;4964975;28;20097;-68
2022/06/25 10:27:51;;;;;;;21.77;5.85;;;30.50;64.20;;;;;;4961485;28;20573;-69
2022/06/25 10:30:46;;;;;;;22.70;5.90;;;30.40;64.40;;;;;;4968508;28;20382;-69
2022/06/25 10:33:15;;;;;;;26.20;6.47;;;30.30;65.00;;;;;;4949078;28;20070;-69
2022/06/25 10:35:42;;;;;;;23.40;6.72;;;30.30;65.10;;;;;;4950017;28;20165;-68
2022/06/25 10:38:13;;;;;;;21.17;6.38;;;30.40;65.50;;;;;;4949175;28;20098;-70
2022/06/25 10:40:48;;;;;;;19.27;5.85;;;30.50;65.90;;;;;;4950458;28;20155;-68
2022/06/25 10:43:37;;;;;;;21.42;5.95;;;30.40;66.20;;;;;;4950686;28;20555;-68
2022/06/25 10:46:22;;;;;;;18.75;6.40;;;30.30;66.30;;;;;;4949988;28;20204;-69
2022/06/25 10:49:08;;;;;;;25.77;6.53;;;30.30;66.40;;;;;;4950163;28;20527;-69
2022/06/25 10:51:40;;;;;;;21.17;6.35;;;30.30;66.50;;;;;;4950042;28;20114;-71
2022/06/25 10:54:12;;;;;;;25.15;7.30;;;30.30;66.80;;;;;;4950036;28;20069;-70
2022/06/25 10:56:45;;;;;;;19.83;5.78;;;30.30;67.60;;;;;;4950540;28;20064;-70
2022/06/25 10:59:35;;;;;;;18.35;5.35;;;30.10;67.90;;;;;;4950305;28;20551;-70
2022/06/25 11:02:10;;;;;;;18.95;5.28;;;30.00;68.30;;;;;;4949960;28;20475;-69
2022/06/25 11:04:37;;;;;;;21.02;5.80;;;29.90;69.20;;;;;;4949099;28;20440;-69
2022/06/25 11:07:17;;;;;;;15.85;4.97;;;30.00;69.70;;;;;;4953092;28;20085;-68
2022/06/25 11:09:58;;;;;;;17.00;5.30;;;30.00;69.20;;;;;;4949297;28;20102;-70
2022/06/25 11:12:27;;;;;;;18.52;5.20;;;30.00;69.10;;;;;;4950504;28;20064;-71
2022/06/25 11:15:08;;;;;;;27.80;5.35;;;29.90;69.20;;;;;;4950038;28;20124;-71
2022/06/25 11:17:35;;;;;;;15.45;4.85;;;29.80;70.60;;;;;;4949803;28;20191;-69
2022/06/25 11:20:07;;;;;;;19.25;5.45;;;29.80;71.10;;;;;;4949712;28;20100;-71
2022/06/25 11:22:34;;;;;;;22.73;5.15;;;29.80;70.60;;;;;;4952795;28;20076;-69
2022/06/25 11:30:29;;;;;;;14.07;4.43;;;29.90;71.00;;;;;;4957319;28;20073;-69
2022/06/25 11:32:57;;;;;;;13.88;4.20;;;29.80;71.70;;;;;;4950815;28;20164;-67
2022/06/25 11:35:37;;;;;;;14.38;4.60;;;29.80;71.80;;;;;;4951550;28;20139;-70
2022/06/25 11:38:03;;;;;;;23.63;4.72;;;29.80;71.70;;;;;;4935750;28;20528;-70
2022/06/25 11:40:29;;;;;;;16.42;4.75;;;29.80;71.40;;;;;;4953420;28;20181;-70
2022/06/25 11:43:06;;;;;;;17.00;4.57;;;29.80;71.90;;;;;;4953616;28;20504;-69
2022/06/25 11:45:33;;;;;;;24.13;5.22;;;29.80;72.50;;;;;;4954490;28;20087;-69
2022/06/25 11:47:59;;;;;;;18.98;4.90;;;29.70;73.10;;;;;;4953353;28;20180;-68
2022/06/25 11:50:27;;;;;;;20.35;5.28;;;29.70;72.90;;;;;;4961804;28;20079;-69
2022/06/25 11:52:54;;;;;;;22.00;5.50;;;29.70;72.80;;;;;;4953032;28;20143;-70
2022/06/25 11:55:21;;;;;;;16.70;5.10;;;29.70;72.60;;;;;;4968544;28;20101;-72
2022/06/25 11:57:47;;;;;;;18.38;5.20;;;29.60;72.20;;;;;;4953925;28;20068;-73
2022/06/25 12:00:14;;;;;;;22.83;5.68;;;29.60;71.50;;;;;;4952033;28;20104;-70
2022/06/25 12:02:42;;;;;;;18.42;4.97;;;29.60;71.20;;;;;;4952701;28;20471;-69
2022/06/25 12:05:10;;;;;;;17.05;5.43;;;29.60;71.20;;;;;;4953057;28;20458;-69
2022/06/25 12:07:38;;;;;;;15.10;5.28;;;29.60;71.40;;;;;;4952858;28;20067;-72
2022/06/25 12:10:09;;;;;;;24.42;5.70;;;29.50;71.40;;;;;;4952523;28;20556;-71
2022/06/25 12:12:37;;;;;;;19.38;5.18;;;29.40;71.70;;;;;;4954209;28;20069;-70
2022/06/25 12:15:05;;;;;;;18.90;5.53;;;29.50;71.90;;;;;;4968052;28;20532;-71
2022/06/25 12:17:35;;;;;;;20.67;5.28;;;29.50;72.30;;;;;;4967376;28;20077;-72
2022/06/25 12:20:10;;;;;;;15.57;4.72;;;29.50;72.70;;;;;;4950985;28;20077;-70
2022/06/25 12:22:51;;;;;;;16.13;5.85;;;29.50;72.80;;;;;;4951881;28;20115;-69
2022/06/25 12:25:25;;;;;;;21.92;5.43;;;29.50;73.50;;;;;;4936844;28;20088;-70
2022/06/25 12:27:52;;;;;;;20.52;6.13;;;29.50;73.50;;;;;;4950417;28;20088;-72
2022/06/25 12:30:24;;;;;;;22.30;5.63;;;29.40;74.30;;;;;;4952450;28;20065;-69
2022/06/25 12:32:53;;;;;;;21.80;5.45;;;29.40;74.50;;;;;;4972833;28;20099;-70
2022/06/25 12:35:22;;;;;;;18.10;5.57;;;29.40;74.40;;;;;;4934633;28;20094;-71
2022/06/25 12:38:01;;;;;;;21.15;5.75;;;29.30;74.90;;;;;;4952495;28;20141;-69
2022/06/25 12:40:28;;;;;;;23.77;4.82;;;29.30;75.20;;;;;;4951073;28;20507;-70
2022/06/25 12:43:00;;;;;;;19.95;4.95;;;29.30;76.30;;;;;;4953025;28;20080;-70
2022/06/25 12:45:31;;;;;;;20.40;4.47;;;29.30;76.20;;;;;;4951623;28;20503;-69
2022/06/25 12:47:58;;;;;;;21.75;4.68;;;29.30;76.80;;;;;;4951918;28;20089;-69
2022/06/25 12:50:26;;;;;;;17.05;4.70;;;29.30;77.20;;;;;;4950981;28;20456;-71
2022/06/25 12:52:54;;;;;;;15.80;4.70;;;29.20;77.90;;;;;;4952135;28;20125;-72
2022/06/25 12:55:22;;;;;;;16.52;4.47;;;29.30;78.40;;;;;;4956309;28;20532;-69
2022/06/25 12:57:49;;;;;;;17.02;4.63;;;29.30;78.60;;;;;;4968702;28;20090;-70